createdAt,value
2022-12-24T00:01:55.615Z,140.98
2022-12-24T00:07:58.451Z,154.15
2022-12-24T00:14:00.547Z,144.50
2022-12-24T00:20:03.340Z,143.70
2022-12-24T00:26:05.718Z,129.27
2022-12-24T00:32:10.590Z,134.50
2022-12-24T00:38:12.723Z,135.57
2022-12-24T00:44:15.099Z,150.82
2022-12-24T00:50:17.394Z,136.88
2022-12-24T00:56:20.220Z,146.25
2022-12-24T01:02:22.856Z,147.10
2022-12-24T01:08:25.311Z,130.98
2022-12-24T01:14:27.626Z,131.50
2022-12-24T01:20:31.912Z,143.20
2022-12-24T01:26:34.164Z,127.57
2022-12-24T01:32:36.317Z,156.52
2022-12-24T01:38:38.623Z,142.40
2022-12-24T01:44:42.996Z,140.00
2022-12-24T01:50:45.608Z,143.82
2022-12-24T01:56:54.695Z,138.80
2022-12-24T02:02:57.192Z,159.98
2022-12-24T02:15:02.441Z,140.82
2022-12-24T02:21:22.966Z,157.20
2022-12-24T02:27:40.336Z,134.55
2022-12-24T02:33:53.159Z,145.20
2022-12-24T02:46:02.221Z,144.23
2022-12-24T02:52:05.119Z,152.20
2022-12-24T02:58:28.693Z,147.18
2022-12-24T03:05:05.040Z,156.93
2022-12-24T03:11:10.998Z,141.05
2022-12-24T03:17:13.628Z,145.05
2022-12-24T03:23:16.157Z,153.20
2022-12-24T03:29:19.075Z,150.98
2022-12-24T03:35:21.400Z,142.30
2022-12-24T03:41:24.221Z,134.57
2022-12-24T03:47:26.644Z,139.40
2022-12-24T03:53:28.777Z,132.60
2022-12-24T03:59:30.898Z,134.60
2022-12-24T04:05:33.372Z,143.85
2022-12-24T04:17:38.041Z,143.43
2022-12-24T04:23:41.491Z,127.85
2022-12-24T04:29:44.029Z,122.78
2022-12-24T04:35:46.115Z,139.18
2022-12-24T04:41:48.333Z,147.30
2022-12-24T04:47:50.391Z,136.48
2022-12-24T04:53:53.250Z,140.57
2022-12-24T04:59:55.738Z,124.38
2022-12-24T05:12:10.785Z,133.57
2022-12-24T05:24:33.636Z,125.07
2022-12-24T05:30:36.022Z,155.77
2022-12-24T05:42:40.734Z,89.03
2022-12-24T05:48:43.162Z,150.02
2022-12-24T05:54:45.448Z,147.10
2022-12-24T06:00:47.695Z,134.43
2022-12-24T06:06:50.186Z,149.93
2022-12-24T06:18:55.644Z,134.60
2022-12-24T06:24:57.772Z,141.55
2022-12-24T06:31:03.180Z,139.85
2022-12-24T06:37:06.012Z,138.93
2022-12-24T06:43:08.371Z,146.82
2022-12-24T06:49:10.719Z,137.10
2022-12-24T07:01:16.838Z,144.43
2022-12-24T07:07:19.159Z,149.13
2022-12-24T07:13:21.348Z,137.75
2022-12-24T07:19:23.715Z,113.68
2022-12-24T07:25:26.139Z,116.72
2022-12-24T07:31:28.477Z,110.63
2022-12-24T07:37:30.589Z,95.55
2022-12-24T07:43:34.079Z,97.47
2022-12-24T07:49:36.880Z,84.00
2022-12-24T08:01:41.662Z,78.20
2022-12-24T08:13:46.523Z,77.47
2022-12-24T08:19:48.818Z,66.67
2022-12-24T08:25:51.490Z,72.40
2022-12-24T08:37:57.160Z,64.47
2022-12-24T08:43:59.474Z,68.45
2022-12-24T08:50:01.644Z,57.20
2022-12-24T08:56:08.909Z,62.65
2022-12-24T09:02:12.402Z,73.18
2022-12-24T09:08:15.451Z,67.70
2022-12-24T09:14:17.582Z,66.93
2022-12-24T09:20:20.399Z,70.43
2022-12-24T09:26:25.075Z,56.60
2022-12-24T09:32:27.585Z,68.72
2022-12-24T09:38:30.922Z,78.75
2022-12-24T09:44:59.295Z,73.97
2022-12-24T09:51:01.644Z,74.20
2022-12-24T09:57:28.271Z,74.90
2022-12-24T10:03:31.426Z,79.72
2022-12-24T10:09:36.432Z,73.20
2022-12-24T10:15:54.771Z,77.95
2022-12-24T10:22:25.675Z,78.35
2022-12-24T10:28:39.089Z,82.80
2022-12-24T10:34:46.942Z,85.85
2022-12-24T10:40:55.177Z,68.13
2022-12-24T10:46:57.655Z,79.35
2022-12-24T10:53:12.852Z,70.93
2022-12-24T10:59:34.574Z,73.70
2022-12-24T11:05:41.358Z,78.75
2022-12-24T11:11:43.763Z,63.00
2022-12-24T11:18:14.003Z,76.85
2022-12-24T11:24:28.894Z,88.15
2022-12-24T11:30:32.522Z,84.50
2022-12-24T11:36:34.863Z,92.78
2022-12-24T11:42:41.256Z,75.55
2022-12-24T11:48:44.068Z,77.95
2022-12-24T12:01:04.025Z,73.45
2022-12-24T12:13:33.715Z,87.07
2022-12-24T12:19:43.837Z,68.45
2022-12-24T12:25:55.805Z,79.63
2022-12-24T12:32:06.816Z,81.43
2022-12-24T12:38:15.946Z,76.10
2022-12-24T12:44:27.025Z,78.65
2022-12-24T12:50:35.559Z,75.43
2022-12-24T12:56:40.099Z,80.03
2022-12-24T13:02:53.138Z,87.38
2022-12-24T13:09:25.305Z,92.25
2022-12-24T13:15:35.079Z,89.00
2022-12-24T13:21:43.005Z,85.43
2022-12-24T13:27:45.254Z,78.28
2022-12-24T13:33:49.951Z,90.55
2022-12-24T13:40:15.483Z,94.45
2022-12-24T13:46:47.270Z,93.43
2022-12-24T13:52:54.070Z,84.03
2022-12-24T13:59:12.191Z,86.10
2022-12-24T14:05:29.314Z,78.28
2022-12-24T14:11:56.336Z,85.93
2022-12-24T14:17:58.593Z,81.28
2022-12-24T14:24:08.023Z,80.32
2022-12-24T14:30:16.464Z,82.70
2022-12-24T14:36:24.526Z,98.55
2022-12-24T14:42:54.668Z,89.07
2022-12-24T14:49:04.827Z,89.00
2022-12-24T15:01:36.326Z,76.97
2022-12-24T15:07:47.314Z,85.40
2022-12-24T15:14:00.879Z,78.30
2022-12-24T15:26:24.594Z,90.88
2022-12-24T15:32:27.083Z,78.78
2022-12-24T15:38:35.054Z,79.53
2022-12-24T15:44:40.880Z,88.07
2022-12-24T15:50:48.528Z,84.13
2022-12-24T15:56:50.719Z,80.97
2022-12-24T16:02:53.826Z,78.75
2022-12-24T16:08:56.912Z,79.10
2022-12-24T16:15:01.277Z,79.78
2022-12-24T16:21:04.733Z,78.88
2022-12-24T16:27:13.286Z,80.07
2022-12-24T16:33:18.007Z,79.00
2022-12-24T16:39:25.927Z,88.88
2022-12-24T16:45:29.866Z,78.90
2022-12-24T16:51:32.466Z,82.35
2022-12-24T16:57:34.976Z,78.30
2022-12-24T17:09:39.753Z,84.15
2022-12-24T17:15:42.772Z,76.75
2022-12-24T17:21:45.635Z,89.60
2022-12-24T17:27:48.108Z,86.65
2022-12-24T17:33:51.287Z,79.78
2022-12-24T17:39:53.732Z,75.07
2022-12-24T17:51:59.078Z,87.32
2022-12-24T17:58:01.631Z,73.90
2022-12-24T18:04:06.051Z,99.90
2022-12-24T18:10:09.055Z,84.32
2022-12-24T18:16:25.631Z,77.43
2022-12-24T18:22:27.948Z,83.10
2022-12-24T18:28:30.588Z,72.95
2022-12-24T18:40:37.495Z,85.28
2022-12-24T18:46:39.877Z,91.00
2022-12-24T18:52:42.334Z,72.85
2022-12-24T18:58:45.370Z,95.70
2022-12-24T19:04:47.629Z,95.43
2022-12-24T19:10:49.972Z,91.60
2022-12-24T19:16:53.458Z,82.47
2022-12-24T19:22:55.868Z,86.20
2022-12-24T19:28:58.220Z,84.90
2022-12-24T19:35:00.547Z,88.75
2022-12-24T19:41:11.004Z,96.22
2022-12-24T19:47:13.519Z,83.65
2022-12-24T19:53:15.943Z,82.32
2022-12-24T19:59:18.393Z,92.20
2022-12-24T20:05:20.526Z,88.88
2022-12-24T20:11:22.846Z,88.75
2022-12-24T20:17:25.531Z,100.35
2022-12-24T20:29:30.728Z,100.18
2022-12-24T20:47:39.518Z,91.78
2022-12-24T20:59:49.672Z,75.43
2022-12-24T21:05:52.207Z,79.95
2022-12-24T21:11:54.385Z,76.68
2022-12-24T21:17:57.464Z,69.35
2022-12-24T21:24:01.008Z,81.00
2022-12-24T21:30:05.564Z,78.57
2022-12-24T21:36:08.274Z,80.32
2022-12-24T21:48:32.689Z,80.38
2022-12-24T21:54:35.065Z,77.85
2022-12-24T22:00:37.291Z,88.00
2022-12-24T22:06:58.874Z,69.82
2022-12-24T22:13:06.519Z,72.63
2022-12-24T22:19:08.591Z,84.20
2022-12-24T22:25:11.260Z,71.53
2022-12-24T22:37:19.554Z,59.42
2022-12-24T22:43:22.032Z,60.28
2022-12-24T22:49:24.247Z,74.57
2022-12-24T22:55:26.499Z,64.45
2022-12-24T23:01:39.901Z,69.75
2022-12-24T23:07:42.092Z,72.90
2022-12-24T23:14:06.301Z,61.75
2022-12-24T23:20:09.315Z,67.20
2022-12-24T23:26:15.795Z,61.80
2022-12-24T23:32:18.035Z,63.35
2022-12-24T23:38:20.838Z,73.13
2022-12-24T23:44:30.137Z,59.85
2022-12-24T23:50:34.581Z,58.70
2022-12-24T23:56:37.176Z,63.83
